createdAt,value
2022-09-10T00:01:26.813Z,100.00
2022-09-10T00:03:54.926Z,100.00
2022-09-10T00:06:27.906Z,100.00
2022-09-10T00:08:58.868Z,100.00
2022-09-10T00:11:28.162Z,100.00
2022-09-10T00:13:57.363Z,100.00
2022-09-10T00:16:25.342Z,100.00
2022-09-10T00:18:52.324Z,100.00
2022-09-10T00:21:21.061Z,100.00
2022-09-10T00:23:48.934Z,100.00
2022-09-10T00:26:22.882Z,100.00
2022-09-10T00:28:51.925Z,100.00
2022-09-10T00:31:20.064Z,100.00
2022-09-10T00:33:46.857Z,100.00
2022-09-10T00:36:19.562Z,100.00
2022-09-10T00:38:46.994Z,100.00
2022-09-10T00:41:15.386Z,100.00
2022-09-10T00:43:57.100Z,100.00
2022-09-10T00:46:43.907Z,100.00
2022-09-10T00:49:36.131Z,100.00
2022-09-10T00:52:04.092Z,100.00
2022-09-10T00:54:34.594Z,100.00
2022-09-10T00:57:12.737Z,100.00
2022-09-10T00:59:46.809Z,100.00
2022-09-10T01:02:14.300Z,100.00
2022-09-10T01:04:41.882Z,100.00
2022-09-10T01:07:10.912Z,100.00
2022-09-10T01:09:39.219Z,100.00
2022-09-10T01:12:05.919Z,100.00
2022-09-10T01:14:51.715Z,100.00
2022-09-10T01:17:37.015Z,100.00
2022-09-10T01:20:26.013Z,100.00
2022-09-10T01:23:29.224Z,100.00
2022-09-10T01:26:33.241Z,100.00
2022-09-10T01:29:14.660Z,100.00
2022-09-10T01:31:51.988Z,100.00
2022-09-10T01:34:27.526Z,100.00
2022-09-10T01:37:00.194Z,100.00
2022-09-10T01:39:27.902Z,100.00
2022-09-10T01:41:54.748Z,100.00
2022-09-10T01:44:43.147Z,100.00
2022-09-10T01:47:17.805Z,100.00
2022-09-10T01:49:53.441Z,100.00
2022-09-10T01:52:45.759Z,100.00
2022-09-10T01:55:42.004Z,100.00
2022-09-10T01:58:50.355Z,100.00
2022-09-10T02:01:32.162Z,100.00
2022-09-10T02:04:04.091Z,100.00
2022-09-10T02:06:36.439Z,100.00
2022-09-10T02:09:04.298Z,100.00
2022-09-10T02:11:43.215Z,100.00
2022-09-10T02:14:10.166Z,100.00
2022-09-10T02:16:40.418Z,100.00
2022-09-10T02:19:08.218Z,100.00
2022-09-10T02:21:35.828Z,100.00
2022-09-10T02:24:10.091Z,100.00
2022-09-10T02:26:39.882Z,100.00
2022-09-10T02:29:09.299Z,100.00
2022-09-10T02:31:36.560Z,100.00
2022-09-10T02:34:03.634Z,100.00
2022-09-10T02:36:31.861Z,100.00
2022-09-10T02:39:01.356Z,100.00
2022-09-10T02:41:28.031Z,100.00
2022-09-10T02:43:55.538Z,100.00
2022-09-10T02:46:22.300Z,100.00
2022-09-10T02:48:48.956Z,100.00
2022-09-10T02:51:15.628Z,100.00
2022-09-10T02:53:42.318Z,100.00
2022-09-10T02:56:09.005Z,100.00
2022-09-10T02:58:35.764Z,100.00
2022-09-10T03:01:10.853Z,100.00
2022-09-10T03:03:37.639Z,100.00
2022-09-10T03:06:04.866Z,100.00
2022-09-10T03:08:31.820Z,100.00
2022-09-10T03:10:59.475Z,100.00
2022-09-10T03:13:27.734Z,100.00
2022-09-10T03:15:58.805Z,100.00
2022-09-10T03:18:27.407Z,100.00
2022-09-10T03:20:54.027Z,100.00
2022-09-10T03:23:20.711Z,100.00
2022-09-10T03:25:49.854Z,100.00
2022-09-10T03:28:16.708Z,100.00
2022-09-10T03:30:43.458Z,100.00
2022-09-10T03:33:11.863Z,100.00
2022-09-10T03:35:38.877Z,100.00
2022-09-10T03:38:05.952Z,100.00
2022-09-10T03:40:33.026Z,100.00
2022-09-10T03:43:01.211Z,100.00
2022-09-10T03:45:28.725Z,100.00
2022-09-10T03:47:55.544Z,100.00
2022-09-10T03:50:22.564Z,100.00
2022-09-10T03:52:49.590Z,100.00
2022-09-10T03:55:16.313Z,100.00
2022-09-10T03:57:42.927Z,100.00
2022-09-10T04:00:13.347Z,100.00
2022-09-10T04:02:41.722Z,100.00
2022-09-10T04:05:09.809Z,100.00
2022-09-10T04:07:36.871Z,100.00
2022-09-10T04:10:04.027Z,100.00
2022-09-10T04:12:30.624Z,100.00
2022-09-10T04:14:57.286Z,100.00
2022-09-10T04:17:27.816Z,100.00
2022-09-10T04:19:54.657Z,100.00
2022-09-10T04:22:22.477Z,100.00
2022-09-10T04:24:49.469Z,100.00
2022-09-10T04:27:16.991Z,100.00
2022-09-10T04:29:43.762Z,100.00
2022-09-10T04:32:10.422Z,100.00
2022-09-10T04:34:37.068Z,100.00
2022-09-10T04:37:03.862Z,100.00
2022-09-10T04:39:30.499Z,100.00
2022-09-10T04:41:58.082Z,100.00
2022-09-10T04:44:24.774Z,100.00
2022-09-10T04:46:51.864Z,100.00
2022-09-10T04:49:18.499Z,100.00
2022-09-10T04:51:45.115Z,100.00
2022-09-10T04:54:14.972Z,100.00
2022-09-10T04:56:47.446Z,100.00
2022-09-10T04:59:14.165Z,100.00
2022-09-10T05:01:40.864Z,100.00
2022-09-10T05:04:07.573Z,100.00
2022-09-10T05:06:35.280Z,100.00
2022-09-10T05:09:02.050Z,100.00
2022-09-10T05:11:28.792Z,100.00
2022-09-10T05:13:55.466Z,100.00
2022-09-10T05:16:22.130Z,100.00
2022-09-10T05:18:48.893Z,100.00
2022-09-10T05:21:15.727Z,100.00
2022-09-10T05:23:42.384Z,100.00
2022-09-10T05:26:10.521Z,100.00
2022-09-10T05:28:37.301Z,100.00
2022-09-10T05:31:03.920Z,100.00
2022-09-10T05:33:31.067Z,100.00
2022-09-10T05:35:57.832Z,100.00
2022-09-10T05:38:24.960Z,100.00
2022-09-10T05:40:53.750Z,100.00
2022-09-10T05:43:21.090Z,100.00
2022-09-10T05:45:48.906Z,100.00
2022-09-10T05:48:15.627Z,100.00
2022-09-10T05:50:45.671Z,100.00
2022-09-10T05:53:12.950Z,100.00
2022-09-10T05:55:39.654Z,100.00
2022-09-10T05:58:06.338Z,100.00
2022-09-10T06:00:33.443Z,100.00
2022-09-10T06:03:00.797Z,100.00
2022-09-10T06:05:28.321Z,100.00
2022-09-10T06:07:55.298Z,100.00
2022-09-10T06:10:22.497Z,100.00
2022-09-10T06:12:52.023Z,100.00
2022-09-10T06:15:20.727Z,100.00
2022-09-10T06:17:48.366Z,100.00
2022-09-10T06:20:15.714Z,100.00
2022-09-10T06:22:45.216Z,100.00
2022-09-10T06:25:15.763Z,100.00
2022-09-10T06:27:44.643Z,100.00
2022-09-10T06:30:17.665Z,100.00
2022-09-10T06:32:44.692Z,100.00
2022-09-10T06:35:11.394Z,100.00
2022-09-10T06:37:38.032Z,100.00
2022-09-10T06:40:05.339Z,100.00
2022-09-10T06:42:39.152Z,100.00
2022-09-10T06:45:06.227Z,100.00
2022-09-10T06:50:20.821Z,100.00
2022-09-10T06:53:02.730Z,100.00
2022-09-10T06:55:29.484Z,100.00
2022-09-10T06:58:14.507Z,100.00
2022-09-10T07:00:41.481Z,100.00
2022-09-10T07:03:09.075Z,100.00
2022-09-10T07:06:16.037Z,100.00
2022-09-10T07:08:43.664Z,100.00
2022-09-10T07:11:13.638Z,100.00
2022-09-10T07:13:54.170Z,100.00
2022-09-10T07:16:25.910Z,100.00
2022-09-10T07:18:57.856Z,100.00
2022-09-10T07:21:27.404Z,100.00
2022-09-10T07:24:23.620Z,100.00
2022-09-10T07:26:50.711Z,100.00
2022-09-10T07:29:18.382Z,100.00
2022-09-10T07:31:47.696Z,100.00
2022-09-10T07:34:14.556Z,100.00
2022-09-10T07:36:41.200Z,100.00
2022-09-10T07:39:09.114Z,100.00
2022-09-10T07:41:36.062Z,100.00
2022-09-10T07:44:02.978Z,100.00
2022-09-10T07:46:30.054Z,100.00
2022-09-10T07:49:00.738Z,100.00
2022-09-10T07:51:31.864Z,100.00
2022-09-10T07:53:59.381Z,100.00
2022-09-10T07:56:26.648Z,100.00
2022-09-10T07:58:54.141Z,100.00
2022-09-10T08:01:21.446Z,100.00
2022-09-10T08:03:48.390Z,100.00
2022-09-10T08:06:16.078Z,100.00
2022-09-10T08:08:45.651Z,100.00
2022-09-10T08:11:17.702Z,100.00
2022-09-10T08:13:46.891Z,100.00
2022-09-10T08:16:17.220Z,100.00
2022-09-10T08:18:45.513Z,100.00
2022-09-10T08:21:13.714Z,100.00
2022-09-10T08:23:40.425Z,100.00
2022-09-10T08:26:10.422Z,100.00
2022-09-10T08:28:38.072Z,100.00
2022-09-10T08:31:08.239Z,100.00
2022-09-10T08:33:35.765Z,100.00
2022-09-10T08:36:04.812Z,100.00
2022-09-10T08:38:37.085Z,100.00
2022-09-10T08:41:28.260Z,100.00
2022-09-10T08:44:03.523Z,100.00
2022-09-10T08:46:37.299Z,100.00
2022-09-10T08:49:28.681Z,100.00
2022-09-10T08:52:19.933Z,100.00
2022-09-10T08:55:17.695Z,100.00
2022-09-10T08:58:23.357Z,100.00
2022-09-10T09:00:55.225Z,100.00
2022-09-10T09:03:31.872Z,100.00
2022-09-10T09:05:59.515Z,100.00
2022-09-10T09:08:29.952Z,100.00
2022-09-10T09:11:10.512Z,100.00
2022-09-10T09:13:51.816Z,100.00
2022-09-10T09:16:34.339Z,100.00
2022-09-10T09:19:17.482Z,100.00
2022-09-10T09:21:52.509Z,100.00
2022-09-10T09:24:23.927Z,100.00
2022-09-10T09:27:01.415Z,98.79
2022-09-10T09:29:46.105Z,99.02
2022-09-10T09:32:17.284Z,99.72
2022-09-10T09:34:51.135Z,100.00
2022-09-10T09:37:24.194Z,98.36
2022-09-10T09:40:17.011Z,98.20
2022-09-10T09:42:50.578Z,98.77
2022-09-10T09:45:40.220Z,98.00
2022-09-10T09:48:10.174Z,97.53
2022-09-10T09:50:41.974Z,97.42
2022-09-10T09:53:17.788Z,98.15
2022-09-10T09:55:53.734Z,99.11
2022-09-10T09:58:32.337Z,97.73
2022-09-10T10:01:05.943Z,98.67
2022-09-10T10:03:38.228Z,99.47
2022-09-10T10:06:10.314Z,98.54
2022-09-10T10:09:00.175Z,98.33
2022-09-10T10:12:08.933Z,99.23
2022-09-10T10:15:41.172Z,97.43
2022-09-10T10:18:23.324Z,97.56
2022-09-10T10:21:10.331Z,97.59
2022-09-10T10:23:41.576Z,98.40
2022-09-10T10:27:04.317Z,98.99
2022-09-10T10:30:02.081Z,96.78
2022-09-10T10:32:49.154Z,97.40
2022-09-10T10:44:37.916Z,96.20
2022-09-10T10:47:34.731Z,95.02
2022-09-10T10:54:18.439Z,94.29
2022-09-10T10:57:06.986Z,94.86
2022-09-10T10:59:39.746Z,93.73
2022-09-10T11:02:29.073Z,92.24
2022-09-10T11:05:20.467Z,90.29
2022-09-10T11:07:54.890Z,92.01
2022-09-10T11:25:28.223Z,89.20
2022-09-10T11:28:34.815Z,87.71
2022-09-10T11:35:17.839Z,87.50
2022-09-10T11:38:01.255Z,88.01
2022-09-10T11:40:40.971Z,89.35
2022-09-10T11:43:14.990Z,89.70
2022-09-10T11:45:48.740Z,90.30
2022-09-10T11:48:25.124Z,90.27
2022-09-10T11:51:01.473Z,90.59
2022-09-10T11:53:29.811Z,91.33
2022-09-10T11:56:35.421Z,86.03
2022-09-10T11:59:53.318Z,87.74
2022-09-10T12:03:37.517Z,87.66
2022-09-10T12:06:18.042Z,89.12
2022-09-10T12:09:03.326Z,88.49
2022-09-10T12:11:47.982Z,87.58
2022-09-10T12:14:38.821Z,88.02
2022-09-10T12:17:27.280Z,89.58
2022-09-10T12:19:57.439Z,89.12
2022-09-10T12:22:36.851Z,88.90
2022-09-10T12:25:28.302Z,87.86
2022-09-10T12:28:00.257Z,86.59
2022-09-10T12:30:52.126Z,83.53
2022-09-10T12:33:22.161Z,80.33
2022-09-10T12:35:49.915Z,82.18
2022-09-10T12:38:44.628Z,78.93
2022-09-10T12:41:21.014Z,79.18
2022-09-10T12:43:53.175Z,79.34
2022-09-10T12:46:22.821Z,79.43
2022-09-10T12:52:13.705Z,81.54
2022-09-10T12:54:49.578Z,79.67
2022-09-10T12:57:30.026Z,80.63
2022-09-10T13:00:22.909Z,81.64
2022-09-10T13:03:07.027Z,81.85
2022-09-10T13:05:46.433Z,82.85
2022-09-10T13:08:18.197Z,83.13
2022-09-10T13:11:00.193Z,84.78
2022-09-10T13:13:59.426Z,86.02
2022-09-10T13:16:26.521Z,86.94
2022-09-10T13:18:57.010Z,87.33
2022-09-10T13:21:24.006Z,85.54
2022-09-10T13:23:56.279Z,85.69
2022-09-10T13:26:37.459Z,83.25
2022-09-10T13:29:27.993Z,83.76
2022-09-10T13:32:31.629Z,84.12
2022-09-10T13:35:12.083Z,83.57
2022-09-10T13:37:53.738Z,82.29
2022-09-10T13:40:39.124Z,81.14
2022-09-10T13:43:27.815Z,79.82
2022-09-10T13:46:05.333Z,80.11
2022-09-10T13:48:46.257Z,78.81
2022-09-10T13:51:29.304Z,75.19
2022-09-10T13:54:07.296Z,74.58
2022-09-10T13:56:35.489Z,74.84
2022-09-10T13:59:05.125Z,74.72
2022-09-10T14:01:59.494Z,76.02
2022-09-10T14:04:31.833Z,75.86
2022-09-10T14:07:22.007Z,77.46
2022-09-10T14:10:01.775Z,79.84
2022-09-10T14:12:32.783Z,81.02
2022-09-10T14:15:02.423Z,80.92
2022-09-10T14:17:34.163Z,81.11
2022-09-10T14:20:05.964Z,79.42
2022-09-10T14:22:32.886Z,78.88
2022-09-10T14:25:01.827Z,78.96
2022-09-10T14:27:39.545Z,77.59
2022-09-10T14:30:18.806Z,76.35
2022-09-10T14:32:48.419Z,79.04
2022-09-10T14:35:40.763Z,77.51
2022-09-10T14:38:34.354Z,78.48
2022-09-10T14:41:16.499Z,79.72
2022-09-10T14:43:43.227Z,77.76
2022-09-10T14:46:34.002Z,78.09
2022-09-10T14:49:01.482Z,76.36
2022-09-10T14:51:28.450Z,75.74
2022-09-10T14:53:57.900Z,75.96
2022-09-10T14:56:29.005Z,75.80
2022-09-10T14:58:57.995Z,76.48
2022-09-10T15:01:25.496Z,76.10
2022-09-10T15:03:52.692Z,77.27
2022-09-10T15:06:21.979Z,77.68
2022-09-10T15:08:52.875Z,76.84
2022-09-10T15:11:22.643Z,78.19
2022-09-10T15:13:49.708Z,76.36
2022-09-10T15:16:16.923Z,75.37
2022-09-10T15:18:43.666Z,75.91
2022-09-10T15:21:14.334Z,76.13
2022-09-10T15:23:42.170Z,75.50
2022-09-10T15:26:13.192Z,76.65
2022-09-10T15:28:41.041Z,76.45
2022-09-10T15:31:09.134Z,77.62
2022-09-10T15:33:36.215Z,78.60
2022-09-10T15:36:03.791Z,77.68
2022-09-10T15:38:32.671Z,77.86
2022-09-10T15:41:13.113Z,79.75
2022-09-10T15:43:43.128Z,79.46
2022-09-10T15:46:11.874Z,80.75
2022-09-10T15:48:39.153Z,79.79
2022-09-10T15:51:11.874Z,80.24
2022-09-10T15:53:39.492Z,78.26
2022-09-10T15:56:07.936Z,78.94
2022-09-10T15:58:35.464Z,79.51
2022-09-10T16:01:07.521Z,79.68
2022-09-10T16:03:34.321Z,78.79
2022-09-10T16:06:13.103Z,79.75
2022-09-10T16:17:10.634Z,78.68
2022-09-10T16:19:42.245Z,79.13
2022-09-10T16:22:08.979Z,79.25
2022-09-10T16:24:36.019Z,80.39
2022-09-10T16:27:03.047Z,80.43
2022-09-10T16:29:29.921Z,79.81
2022-09-10T16:31:56.574Z,79.03
2022-09-10T16:34:24.640Z,79.52
2022-09-10T16:36:56.175Z,77.41
2022-09-10T16:40:09.451Z,78.26
2022-09-10T16:42:36.907Z,77.32
2022-09-10T16:45:07.751Z,77.82
2022-09-10T16:47:36.080Z,77.54
2022-09-10T16:50:03.003Z,77.63
2022-09-10T16:52:30.945Z,78.29
2022-09-10T16:55:02.781Z,78.03
2022-09-10T16:57:30.474Z,78.97
2022-09-10T16:59:57.657Z,79.22
2022-09-10T17:02:24.613Z,79.34
2022-09-10T17:04:51.361Z,79.19
2022-09-10T17:07:20.529Z,81.03
2022-09-10T17:09:47.123Z,80.30
2022-09-10T17:12:13.745Z,80.04
2022-09-10T17:14:40.580Z,80.83
2022-09-10T17:17:07.232Z,81.31
2022-09-10T17:19:34.644Z,81.60
2022-09-10T17:22:01.783Z,81.05
2022-09-10T17:24:31.872Z,81.43
2022-09-10T17:26:58.703Z,80.99
2022-09-10T17:29:26.889Z,81.03
2022-09-10T17:35:04.761Z,80.65
2022-09-10T17:37:32.628Z,80.95
2022-09-10T17:39:59.327Z,81.07
2022-09-10T17:42:26.096Z,81.20
2022-09-10T17:44:53.820Z,80.97
2022-09-10T17:47:21.038Z,80.80
2022-09-10T17:50:06.228Z,81.72
2022-09-10T17:52:33.034Z,81.33
2022-09-10T17:55:03.595Z,81.67
2022-09-10T17:58:01.946Z,81.84
2022-09-10T18:00:28.628Z,81.53
2022-09-10T18:02:55.401Z,82.43
2022-09-10T18:05:22.169Z,82.29
2022-09-10T18:07:48.770Z,82.04
2022-09-10T18:10:49.943Z,81.75
2022-09-10T18:13:41.582Z,82.00
2022-09-10T18:16:21.018Z,82.84
2022-09-10T18:19:00.099Z,82.79
2022-09-10T18:21:35.432Z,83.80
2022-09-10T18:24:03.959Z,84.31
2022-09-10T18:26:32.796Z,84.64
2022-09-10T18:29:16.050Z,85.64
2022-09-10T18:31:51.792Z,85.50
2022-09-10T18:34:23.354Z,86.76
2022-09-10T18:36:57.743Z,86.53
2022-09-10T18:43:04.567Z,87.50
2022-09-10T18:45:31.357Z,87.67
2022-09-10T18:48:07.193Z,87.80
2022-09-10T18:50:40.117Z,88.38
2022-09-10T18:53:09.818Z,88.84
2022-09-10T18:58:51.895Z,95.69
2022-09-10T19:01:19.282Z,98.05
2022-09-10T19:03:48.059Z,98.17
2022-09-10T19:06:32.068Z,100.00
2022-09-10T19:09:10.118Z,100.00
2022-09-10T19:15:39.436Z,100.00
2022-09-10T19:18:06.660Z,100.00
2022-09-10T19:21:07.963Z,100.00
2022-09-10T19:23:39.886Z,100.00
2022-09-10T19:26:09.928Z,100.00
2022-09-10T19:29:21.882Z,100.00
2022-09-10T19:31:50.395Z,100.00
2022-09-10T19:34:19.257Z,100.00
2022-09-10T19:37:28.916Z,100.00
2022-09-10T19:39:57.062Z,100.00
2022-09-10T19:49:26.474Z,100.00
2022-09-10T19:51:54.150Z,100.00
2022-09-10T19:54:22.825Z,100.00
2022-09-10T19:56:50.178Z,100.00
2022-09-10T19:59:17.064Z,100.00
2022-09-10T20:01:46.922Z,100.00
2022-09-10T20:04:49.036Z,100.00
2022-09-10T20:07:16.307Z,100.00
2022-09-10T20:09:43.074Z,100.00
2022-09-10T20:12:56.637Z,100.00
2022-09-10T20:15:26.517Z,100.00
2022-09-10T20:18:28.495Z,100.00
2022-09-10T20:21:15.564Z,100.00
2022-09-10T20:35:10.858Z,100.00
2022-09-10T20:38:45.170Z,100.00
2022-09-10T20:45:12.607Z,100.00
2022-09-10T20:47:43.421Z,100.00
2022-09-10T20:50:13.005Z,100.00
2022-09-10T20:52:42.208Z,100.00
2022-09-10T20:55:11.931Z,100.00
2022-09-10T20:57:59.004Z,100.00
2022-09-10T21:00:26.108Z,100.00
2022-09-10T21:02:53.157Z,100.00
2022-09-10T21:06:23.824Z,100.00
2022-09-10T21:12:42.925Z,100.00
2022-09-10T21:15:09.760Z,100.00
2022-09-10T21:17:36.444Z,100.00
2022-09-10T21:20:04.230Z,100.00
2022-09-10T21:26:51.404Z,100.00
2022-09-10T21:41:15.021Z,100.00
2022-09-10T21:43:47.269Z,100.00
2022-09-10T21:46:23.970Z,100.00
2022-09-10T21:48:51.401Z,100.00
2022-09-10T21:57:17.272Z,100.00
2022-09-10T22:11:59.290Z,100.00
2022-09-10T22:19:23.469Z,100.00
2022-09-10T22:21:51.021Z,100.00
2022-09-10T22:24:20.990Z,100.00
2022-09-10T22:26:47.757Z,100.00
2022-09-10T22:29:19.284Z,100.00
2022-09-10T22:31:47.086Z,100.00
2022-09-10T22:34:15.517Z,100.00
2022-09-10T22:36:44.461Z,100.00
2022-09-10T22:39:15.860Z,100.00
2022-09-10T22:41:43.890Z,100.00
2022-09-10T22:44:11.154Z,100.00
2022-09-10T22:46:39.183Z,100.00
2022-09-10T22:56:09.231Z,100.00
2022-09-10T22:58:36.300Z,100.00
2022-09-10T23:01:05.371Z,100.00
2022-09-10T23:07:22.901Z,100.00
2022-09-10T23:10:57.040Z,100.00
2022-09-10T23:13:23.831Z,100.00
2022-09-10T23:15:50.489Z,100.00
2022-09-10T23:18:17.165Z,100.00
2022-09-10T23:20:44.416Z,100.00
2022-09-10T23:23:11.199Z,100.00
2022-09-10T23:25:38.050Z,100.00
2022-09-10T23:28:12.061Z,100.00
2022-09-10T23:30:47.217Z,100.00
2022-09-10T23:33:49.941Z,100.00
2022-09-10T23:36:27.909Z,100.00
2022-09-10T23:39:30.012Z,100.00
